Time;durP1;ratioP1;P1;durP2;ratioP2;P2;SDS_P1;SDS_P2;PMS_P1;PMS_P2;Temp;Humidity;BMP_temperature;BMP_pressure;BME280_temperature;BME280_humidity;BME280_pressure;Samples;Min_cycle;Max_cycle;Signal;HPM_P1;HPM_P2
2022/05/20 00:00:40;;;;;;;;;1.00;1.00;;;;;;;;5038849;28;9012;-73
2022/05/20 00:03:08;;;;;;;;;1.50;1.50;;;;;;;;5036138;28;8866;-74
2022/05/20 00:05:36;;;;;;;;;1.00;1.00;;;;;;;;5039231;28;8898;-75
2022/05/20 00:08:05;;;;;;;;;2.00;2.00;;;;;;;;5039912;28;8857;-76
2022/05/20 00:10:34;;;;;;;;;3.00;1.00;;;;;;;;5036996;28;8986;-73
2022/05/20 00:13:01;;;;;;;;;1.25;1.25;;;;;;;;5040461;28;8882;-73
2022/05/20 00:15:30;;;;;;;;;1.75;1.00;;;;;;;;5038989;28;8932;-73
2022/05/20 00:17:58;;;;;;;;;1.00;1.00;;;;;;;;5042403;28;8890;-74
2022/05/20 00:20:28;;;;;;;;;0.00;0.00;;;;;;;;5040826;28;8937;-73
2022/05/20 00:22:56;;;;;;;;;1.00;1.00;;;;;;;;5040143;28;8847;-74
2022/05/20 00:28:11;;;;;;;;;1.00;1.00;;;;;;;;5036677;28;10197;-73
2022/05/20 00:30:38;;;;;;;;;1.50;1.25;;;;;;;;5040339;28;8799;-74
2022/05/20 00:33:07;;;;;;;;;0.75;0.75;;;;;;;;5037394;28;8845;-73
2022/05/20 00:35:35;;;;;;;;;0.00;0.00;;;;;;;;5037174;28;8905;-75
2022/05/20 00:38:03;;;;;;;;;2.00;2.00;;;;;;;;5039726;28;8878;-76
2022/05/20 00:40:31;;;;;;;;;1.75;1.00;;;;;;;;5039074;28;8867;-75
2022/05/20 00:43:16;;;;;;;;;1.25;1.25;;;;;;;;5040597;28;8898;-73
2022/05/20 00:45:44;;;;;;;;;1.75;1.00;;;;;;;;5028046;28;8873;-74
2022/05/20 00:48:11;;;;;;;;;3.00;2.00;;;;;;;;5035515;28;8861;-73
2022/05/20 00:50:43;;;;;;;;;1.00;0.00;;;;;;;;5041026;28;8839;-73
2022/05/20 00:53:12;;;;;;;;;1.00;1.00;;;;;;;;5038658;28;8902;-74
2022/05/20 00:55:39;;;;;;;;;1.00;1.00;;;;;;;;5045318;28;8859;-74
2022/05/20 00:58:09;;;;;;;;;3.00;1.50;;;;;;;;5036823;28;8873;-74
2022/05/20 01:00:42;;;;;;;;;1.00;1.00;;;;;;;;5034764;28;8799;-76
2022/05/20 01:03:12;;;;;;;;;1.00;1.00;;;;;;;;5036755;28;8859;-73
2022/05/20 01:05:42;;;;;;;;;2.00;2.00;;;;;;;;5038553;28;8869;-74
2022/05/20 01:08:09;;;;;;;;;2.00;2.00;;;;;;;;5039814;28;8886;-76
2022/05/20 01:10:37;;;;;;;;;2.00;2.00;;;;;;;;5037699;28;8862;-75
2022/05/20 01:13:04;;;;;;;;;2.00;2.00;;;;;;;;5040189;28;8883;-75
2022/05/20 01:15:32;;;;;;;;;3.25;0.25;;;;;;;;5038146;28;8879;-75
2022/05/20 01:18:01;;;;;;;;;2.00;1.00;;;;;;;;5044864;28;8886;-75
2022/05/20 01:20:30;;;;;;;;;1.00;1.00;;;;;;;;5041155;28;8892;-74
2022/05/20 01:23:09;;;;;;;;;2.00;2.00;;;;;;;;5041444;28;8890;-75
2022/05/20 01:25:37;;;;;;;;;1.00;1.00;;;;;;;;5043468;28;8851;-74
2022/05/20 01:28:05;;;;;;;;;1.75;1.75;;;;;;;;5043326;28;8936;-74
2022/05/20 01:30:33;;;;;;;;;2.25;1.00;;;;;;;;5043792;28;8830;-77
2022/05/20 01:33:04;;;;;;;;;2.00;2.00;;;;;;;;5046594;28;8890;-75
2022/05/20 01:35:36;;;;;;;;;2.00;2.00;;;;;;;;5045549;28;9015;-75
2022/05/20 01:38:07;;;;;;;;;3.00;2.75;;;;;;;;5042912;28;8901;-77
2022/05/20 01:40:41;;;;;;;;;1.00;1.00;;;;;;;;5035781;28;8895;-73
2022/05/20 01:43:14;;;;;;;;;1.75;1.75;;;;;;;;5048458;28;8868;-73
2022/05/20 01:45:46;;;;;;;;;1.00;1.00;;;;;;;;5037183;28;8912;-73
2022/05/20 01:48:19;;;;;;;;;2.25;2.25;;;;;;;;5047568;28;8896;-74
2022/05/20 01:50:50;;;;;;;;;2.00;2.00;;;;;;;;5041813;28;8877;-74
2022/05/20 01:53:27;;;;;;;;;2.00;2.00;;;;;;;;5043410;28;9243;-74
2022/05/20 01:56:01;;;;;;;;;1.25;1.25;;;;;;;;5042676;28;8875;-75
2022/05/20 01:58:30;;;;;;;;;1.00;1.00;;;;;;;;5038383;28;8857;-75
2022/05/20 02:01:01;;;;;;;;;2.00;2.00;;;;;;;;5047482;28;8826;-76
2022/05/20 02:03:34;;;;;;;;;3.25;3.25;;;;;;;;5043517;28;8887;-74
2022/05/20 02:06:08;;;;;;;;;1.25;1.25;;;;;;;;5045193;28;8872;-76
2022/05/20 02:08:41;;;;;;;;;1.00;1.00;;;;;;;;5038026;28;8887;-73
2022/05/20 02:11:12;;;;;;;;;1.75;1.75;;;;;;;;5040707;28;8879;-75
2022/05/20 02:13:44;;;;;;;;;3.50;3.50;;;;;;;;5040294;28;8866;-74
2022/05/20 02:16:13;;;;;;;;;2.25;2.25;;;;;;;;5043640;28;8888;-76
2022/05/20 02:18:44;;;;;;;;;1.25;1.25;;;;;;;;5041577;28;8900;-74
2022/05/20 02:21:15;;;;;;;;;1.75;1.75;;;;;;;;5040948;28;8901;-73
2022/05/20 02:23:47;;;;;;;;;2.25;1.75;;;;;;;;5040246;28;8874;-73
2022/05/20 02:26:18;;;;;;;;;2.00;2.00;;;;;;;;5051421;28;8890;-73
2022/05/20 02:28:49;;;;;;;;;2.00;2.00;;;;;;;;5044396;28;8855;-73
2022/05/20 02:31:19;;;;;;;;;3.00;2.00;;;;;;;;5047255;28;8837;-73
2022/05/20 02:33:46;;;;;;;;;2.00;2.00;;;;;;;;5043766;28;8892;-73
2022/05/20 02:36:21;;;;;;;;;4.00;2.00;;;;;;;;5042406;28;8859;-73
2022/05/20 02:38:50;;;;;;;;;2.00;2.00;;;;;;;;5047650;28;8856;-74
2022/05/20 02:41:17;;;;;;;;;2.50;2.00;;;;;;;;5046067;28;8939;-74
2022/05/20 02:43:45;;;;;;;;;2.75;2.00;;;;;;;;5044838;28;8854;-73
2022/05/20 02:46:13;;;;;;;;;4.75;1.75;;;;;;;;5036741;28;8989;-74
2022/05/20 02:48:41;;;;;;;;;1.25;1.25;;;;;;;;5042251;28;8860;-74
2022/05/20 02:51:08;;;;;;;;;1.33;1.33;;;;;;;;5036633;28;8912;-75
2022/05/20 02:53:36;;;;;;;;;3.00;3.00;;;;;;;;5033733;28;8871;-74
2022/05/20 02:56:05;;;;;;;;;3.50;3.00;;;;;;;;5043615;28;8872;-73
2022/05/20 03:04:11;;;;;;;;;2.75;2.75;;;;;;;;5038000;28;8846;-72
2022/05/20 03:06:39;;;;;;;;;2.75;2.75;;;;;;;;5040497;28;8883;-73
2022/05/20 03:09:08;;;;;;;;;3.00;3.00;;;;;;;;5041394;28;8886;-75
2022/05/20 03:11:39;;;;;;;;;9.00;4.00;;;;;;;;5037137;28;8879;-73
2022/05/20 03:14:08;;;;;;;;;4.00;2.50;;;;;;;;5038214;28;8925;-74
2022/05/20 03:16:36;;;;;;;;;3.00;3.00;;;;;;;;5035938;28;9018;-74
2022/05/20 03:19:04;;;;;;;;;3.00;3.00;;;;;;;;5040968;28;9637;-75
2022/05/20 03:21:31;;;;;;;;;2.50;2.50;;;;;;;;5039048;28;8870;-73
2022/05/20 03:24:00;;;;;;;;;2.00;2.00;;;;;;;;5041188;28;8890;-74
2022/05/20 03:26:27;;;;;;;;;4.00;2.00;;;;;;;;5040508;28;8879;-75
2022/05/20 03:28:59;;;;;;;;;2.50;2.50;;;;;;;;5036030;28;8895;-73
2022/05/20 03:31:27;;;;;;;;;2.50;2.50;;;;;;;;5040513;28;8851;-74
2022/05/20 03:33:54;;;;;;;;;1.00;1.00;;;;;;;;5039797;28;8874;-74
2022/05/20 03:36:22;;;;;;;;;2.50;2.50;;;;;;;;5038858;28;8878;-73
2022/05/20 03:38:49;;;;;;;;;3.00;3.00;;;;;;;;5036792;28;8914;-74
2022/05/20 03:41:16;;;;;;;;;2.50;2.50;;;;;;;;5039630;28;8976;-73
2022/05/20 03:43:44;;;;;;;;;2.00;2.00;;;;;;;;5039273;28;8840;-72
2022/05/20 03:46:12;;;;;;;;;3.50;3.50;;;;;;;;5035613;28;8905;-73
2022/05/20 03:48:40;;;;;;;;;3.75;2.00;;;;;;;;5040814;28;8877;-73
2022/05/20 03:51:11;;;;;;;;;4.00;4.00;;;;;;;;5039038;28;8855;-78
2022/05/20 03:53:38;;;;;;;;;2.00;2.00;;;;;;;;5039777;28;8855;-75
2022/05/20 03:56:06;;;;;;;;;0.00;0.00;;;;;;;;5039338;28;8887;-73
2022/05/20 03:58:34;;;;;;;;;2.00;2.00;;;;;;;;5038289;28;8863;-72
2022/05/20 04:03:48;;;;;;;;;4.00;4.00;;;;;;;;5037171;28;8843;-73
2022/05/20 04:06:15;;;;;;;;;3.50;3.50;;;;;;;;5046150;28;8895;-73
2022/05/20 04:08:42;;;;;;;;;4.50;4.50;;;;;;;;5041800;28;8873;-73
2022/05/20 04:11:11;;;;;;;;;3.00;3.00;;;;;;;;5041614;28;8859;-73
2022/05/20 04:13:39;;;;;;;;;7.25;4.75;;;;;;;;5044698;28;8882;-73
2022/05/20 04:16:07;;;;;;;;;4.75;4.50;;;;;;;;5047579;28;8859;-74
2022/05/20 04:18:34;;;;;;;;;3.25;3.25;;;;;;;;5045125;28;8977;-74
2022/05/20 04:21:03;;;;;;;;;6.25;6.00;;;;;;;;5037588;28;8885;-74
2022/05/20 04:23:31;;;;;;;;;3.00;3.00;;;;;;;;5034901;28;8882;-74
2022/05/20 04:25:58;;;;;;;;;4.50;3.00;;;;;;;;5041151;28;8857;-74
2022/05/20 04:28:25;;;;;;;;;4.00;4.00;;;;;;;;5037245;28;8891;-73
2022/05/20 04:30:57;;;;;;;;;3.00;3.00;;;;;;;;5027641;28;8842;-73
2022/05/20 04:33:24;;;;;;;;;4.00;4.00;;;;;;;;5035330;28;8879;-76
2022/05/20 04:35:52;;;;;;;;;3.50;2.75;;;;;;;;5030559;28;8897;-73
2022/05/20 04:38:22;;;;;;;;;4.00;2.75;;;;;;;;5031441;28;8863;-73
2022/05/20 04:46:56;;;;;;;;;2.75;2.75;;;;;;;;5032392;28;8896;-73
2022/05/20 04:49:09;;;;;;;;;5.00;5.00;;;;;;;;5039533;28;9605;-74
2022/05/20 04:51:36;;;;;;;;;4.00;4.00;;;;;;;;5030997;28;8861;-78
2022/05/20 04:56:50;;;;;;;;;6.00;4.25;;;;;;;;5040206;28;8834;-86
2022/05/20 04:59:20;;;;;;;;;5.00;5.00;;;;;;;;5040314;28;8878;-86
2022/05/20 05:01:48;;;;;;;;;7.75;6.00;;;;;;;;5043460;28;8950;-86
2022/05/20 05:04:19;;;;;;;;;4.00;4.00;;;;;;;;5044241;28;8893;-86
2022/05/20 05:06:46;;;;;;;;;4.50;4.50;;;;;;;;5041852;28;8839;-86
2022/05/20 05:09:15;;;;;;;;;6.75;5.75;;;;;;;;5034568;28;9017;-75
2022/05/20 05:11:43;;;;;;;;;8.50;5.00;;;;;;;;5036317;28;8908;-82
2022/05/20 05:14:12;;;;;;;;;5.00;5.00;;;;;;;;5037305;28;8873;-81
2022/05/20 05:16:40;;;;;;;;;6.25;6.25;;;;;;;;5035420;28;8924;-85
2022/05/20 05:19:07;;;;;;;;;5.25;4.00;;;;;;;;5036141;28;8858;-80
2022/05/20 05:21:35;;;;;;;;;5.50;4.50;;;;;;;;5038324;28;8907;-81
2022/05/20 05:24:02;;;;;;;;;5.00;3.00;;;;;;;;5043707;28;8905;-80
2022/05/20 05:26:36;;;;;;;;;4.25;4.25;;;;;;;;5039375;28;8913;-81
2022/05/20 05:29:05;;;;;;;;;7.00;4.75;;;;;;;;5040247;28;8855;-77
2022/05/20 05:31:32;;;;;;;;;8.50;5.75;;;;;;;;5037975;28;8921;-80
2022/05/20 05:33:59;;;;;;;;;7.50;5.75;;;;;;;;5036511;28;9033;-80
2022/05/20 05:36:28;;;;;;;;;5.00;5.00;;;;;;;;5039149;28;8863;-83
2022/05/20 05:38:55;;;;;;;;;5.00;5.00;;;;;;;;5040141;28;8863;-81
2022/05/20 05:41:23;;;;;;;;;7.75;6.25;;;;;;;;5043867;28;8870;-77
2022/05/20 05:43:52;;;;;;;;;5.75;5.75;;;;;;;;5046519;28;8896;-81
2022/05/20 05:46:20;;;;;;;;;5.50;4.75;;;;;;;;5039682;28;8868;-87
2022/05/20 05:48:47;;;;;;;;;7.50;5.00;;;;;;;;5033006;28;8883;-79
2022/05/20 05:51:15;;;;;;;;;6.25;6.25;;;;;;;;5039925;28;8880;-81
2022/05/20 05:53:42;;;;;;;;;6.00;6.00;;;;;;;;5038005;28;8891;-79
2022/05/20 05:56:09;;;;;;;;;5.00;5.00;;;;;;;;5042373;28;8898;-80
2022/05/20 05:58:37;;;;;;;;;7.75;7.00;;;;;;;;5039141;28;9779;-77
2022/05/20 06:01:06;;;;;;;;;6.50;6.00;;;;;;;;5039422;28;8880;-79
2022/05/20 06:03:34;;;;;;;;;8.25;5.25;;;;;;;;5040945;28;9382;-87
2022/05/20 06:06:02;;;;;;;;;7.00;7.00;;;;;;;;5044526;28;9644;-88
2022/05/20 06:08:29;;;;;;;;;7.25;6.00;;;;;;;;5043331;28;8870;-87
2022/05/20 06:10:57;;;;;;;;;6.00;6.00;;;;;;;;5041008;28;8879;-84
2022/05/20 06:13:25;;;;;;;;;4.25;4.25;;;;;;;;5040014;28;8886;-84
2022/05/20 06:15:55;;;;;;;;;4.25;4.25;;;;;;;;5041003;28;8867;-85
2022/05/20 06:18:24;;;;;;;;;6.50;6.00;;;;;;;;5041330;28;8887;-82
2022/05/20 06:20:52;;;;;;;;;5.75;5.50;;;;;;;;5043691;28;9045;-82
2022/05/20 06:23:19;;;;;;;;;5.25;5.25;;;;;;;;5036581;28;9003;-82
2022/05/20 06:25:47;;;;;;;;;7.25;7.25;;;;;;;;5038172;28;8893;-82
2022/05/20 06:28:17;;;;;;;;;7.00;6.00;;;;;;;;5039173;28;8879;-83
2022/05/20 06:30:45;;;;;;;;;9.00;6.00;;;;;;;;5042051;28;8833;-83
2022/05/20 06:33:13;;;;;;;;;5.00;5.00;;;;;;;;5038444;28;8874;-83
2022/05/20 06:41:11;;;;;;;;;11.00;6.00;;;;;;;;5042309;28;8978;-85
2022/05/20 06:43:38;;;;;;;;;6.00;5.75;;;;;;;;5031593;28;8890;-83
2022/05/20 06:46:06;;;;;;;;;7.00;6.00;;;;;;;;5038998;28;8866;-83
2022/05/20 06:48:43;;;;;;;;;6.00;6.00;;;;;;;;5042058;28;8893;-83
2022/05/20 06:51:13;;;;;;;;;7.00;7.00;;;;;;;;5042819;28;8901;-85
2022/05/20 06:53:41;;;;;;;;;8.50;6.50;;;;;;;;5041263;28;8927;-84
2022/05/20 06:56:08;;;;;;;;;6.50;5.00;;;;;;;;5040277;28;8869;-85
2022/05/20 06:58:36;;;;;;;;;5.25;5.25;;;;;;;;5037549;28;8871;-84
2022/05/20 07:01:05;;;;;;;;;8.25;8.25;;;;;;;;5043594;28;8986;-85
2022/05/20 07:03:33;;;;;;;;;4.75;4.75;;;;;;;;5039279;28;8867;-83
2022/05/20 07:06:01;;;;;;;;;5.25;5.25;;;;;;;;5036353;28;8886;-83
2022/05/20 07:08:30;;;;;;;;;11.50;9.75;;;;;;;;5038602;28;8874;-75
2022/05/20 07:11:01;;;;;;;;;8.25;8.00;;;;;;;;5035945;28;8875;-78
2022/05/20 07:13:29;;;;;;;;;11.25;11.25;;;;;;;;5030676;28;8882;-77
2022/05/20 07:15:57;;;;;;;;;10.50;9.00;;;;;;;;5028326;28;8883;-84
2022/05/20 07:18:25;;;;;;;;;14.75;9.75;;;;;;;;5037520;28;8909;-74
2022/05/20 07:20:52;;;;;;;;;14.75;9.50;;;;;;;;5031087;28;8843;-74
2022/05/20 07:23:20;;;;;;;;;7.50;7.50;;;;;;;;5038601;28;8902;-73
2022/05/20 07:25:50;;;;;;;;;9.00;9.00;;;;;;;;5033516;28;9636;-73
2022/05/20 07:28:17;;;;;;;;;8.00;8.00;;;;;;;;5031609;28;8863;-73
2022/05/20 07:30:44;;;;;;;;;10.00;10.00;;;;;;;;5037865;28;8833;-73
2022/05/20 07:33:12;;;;;;;;;9.00;8.75;;;;;;;;5034723;28;9780;-72
2022/05/20 07:35:40;;;;;;;;;10.25;10.25;;;;;;;;5032987;28;8855;-74
2022/05/20 07:38:08;;;;;;;;;9.50;9.50;;;;;;;;5045170;28;8894;-71
2022/05/20 07:40:35;;;;;;;;;9.75;8.00;;;;;;;;5034384;28;8912;-73
2022/05/20 07:43:04;;;;;;;;;13.75;10.50;;;;;;;;5043729;28;8867;-73
2022/05/20 07:45:31;;;;;;;;;13.25;13.25;;;;;;;;5040179;28;8874;-73
2022/05/20 07:48:00;;;;;;;;;17.25;15.75;;;;;;;;5035406;28;8845;-74
2022/05/20 07:50:27;;;;;;;;;16.00;15.50;;;;;;;;5034493;28;8878;-73
2022/05/20 07:55:43;;;;;;;;;23.50;21.50;;;;;;;;5039051;28;8970;-71
2022/05/20 07:58:16;;;;;;;;;25.00;23.50;;;;;;;;5044986;28;8883;-73
2022/05/20 08:00:43;;;;;;;;;23.00;19.75;;;;;;;;5035255;28;8888;-72
2022/05/20 08:03:13;;;;;;;;;19.50;19.50;;;;;;;;5040734;28;8897;-72
2022/05/20 08:05:40;;;;;;;;;16.75;14.75;;;;;;;;5041306;28;8878;-75
2022/05/20 08:08:09;;;;;;;;;13.50;12.00;;;;;;;;5038257;28;8883;-74
2022/05/20 08:10:38;;;;;;;;;16.25;14.25;;;;;;;;5038568;28;8886;-73
2022/05/20 08:13:06;;;;;;;;;16.75;16.75;;;;;;;;5037036;28;8881;-72
2022/05/20 08:15:36;;;;;;;;;18.25;15.00;;;;;;;;5035277;28;8859;-73
2022/05/20 08:18:03;;;;;;;;;16.75;15.25;;;;;;;;5041625;28;8858;-72
2022/05/20 08:20:31;;;;;;;;;20.25;17.25;;;;;;;;5033098;28;8847;-75
2022/05/20 08:23:00;;;;;;;;;21.75;18.50;;;;;;;;5038923;28;8901;-74
2022/05/20 08:25:29;;;;;;;;;18.50;17.50;;;;;;;;5033500;28;8898;-74
2022/05/20 08:27:57;;;;;;;;;18.00;16.75;;;;;;;;5035811;28;8855;-72
2022/05/20 08:30:26;;;;;;;;;20.25;20.25;;;;;;;;5036537;28;8775;-73
2022/05/20 08:32:56;;;;;;;;;19.75;17.75;;;;;;;;5036001;28;8867;-74
2022/05/20 08:35:23;;;;;;;;;19.00;19.00;;;;;;;;5041436;28;8871;-72
2022/05/20 08:37:51;;;;;;;;;20.25;19.25;;;;;;;;5041729;28;8919;-73
2022/05/20 08:40:21;;;;;;;;;17.25;15.75;;;;;;;;5040784;28;8883;-73
2022/05/20 08:42:51;;;;;;;;;18.00;15.25;;;;;;;;5036816;28;8873;-73
2022/05/20 08:45:21;;;;;;;;;17.50;15.00;;;;;;;;5036432;28;8880;-74
2022/05/20 08:47:50;;;;;;;;;16.75;16.75;;;;;;;;5039174;28;8883;-73
2022/05/20 08:50:21;;;;;;;;;19.75;16.00;;;;;;;;5038768;28;9571;-71
2022/05/20 08:52:52;;;;;;;;;12.75;12.75;;;;;;;;5041328;28;8851;-72
2022/05/20 08:55:20;;;;;;;;;19.25;18.00;;;;;;;;5039350;28;9270;-75
2022/05/20 08:57:50;;;;;;;;;18.00;16.25;;;;;;;;5036140;28;8863;-72
2022/05/20 09:00:19;;;;;;;;;19.25;17.00;;;;;;;;5034975;28;8879;-74
2022/05/20 09:02:46;;;;;;;;;15.25;14.00;;;;;;;;5038611;28;9018;-74
2022/05/20 09:05:16;;;;;;;;;19.00;17.00;;;;;;;;5040369;28;8909;-73
2022/05/20 09:08:03;;;;;;;;;18.00;16.50;;;;;;;;5038069;28;8867;-74
2022/05/20 09:10:33;;;;;;;;;15.25;14.00;;;;;;;;5041177;28;8866;-72
2022/05/20 09:13:15;;;;;;;;;18.25;15.75;;;;;;;;5040991;28;8887;-72
2022/05/20 09:15:44;;;;;;;;;20.00;17.00;;;;;;;;5041976;28;8889;-72
2022/05/20 09:18:18;;;;;;;;;14.50;14.50;;;;;;;;5040822;28;8902;-71
2022/05/20 09:20:46;;;;;;;;;20.25;19.00;;;;;;;;5041957;28;8918;-74
2022/05/20 09:23:20;;;;;;;;;18.00;15.75;;;;;;;;5042370;28;8883;-73
2022/05/20 09:26:00;;;;;;;;;16.75;15.00;;;;;;;;5041253;28;8886;-72
2022/05/20 09:28:33;;;;;;;;;20.50;16.00;;;;;;;;5041417;28;8871;-73
2022/05/20 09:31:13;;;;;;;;;21.25;17.50;;;;;;;;5040503;28;9640;-74
2022/05/20 09:33:42;;;;;;;;;18.00;18.00;;;;;;;;5043471;28;9647;-72
2022/05/20 09:36:09;;;;;;;;;18.00;17.75;;;;;;;;5045535;28;8847;-73
2022/05/20 09:38:40;;;;;;;;;17.00;17.00;;;;;;;;5044494;28;8891;-72
2022/05/20 09:41:14;;;;;;;;;16.00;14.75;;;;;;;;5045617;28;8886;-73
2022/05/20 09:43:43;;;;;;;;;16.00;16.00;;;;;;;;5041720;28;8914;-73
2022/05/20 09:46:28;;;;;;;;;17.00;16.25;;;;;;;;5043133;28;8854;-72
2022/05/20 09:49:00;;;;;;;;;19.25;17.75;;;;;;;;5043857;28;8867;-72
2022/05/20 09:51:37;;;;;;;;;19.00;15.75;;;;;;;;5044171;28;8917;-73
2022/05/20 09:54:18;;;;;;;;;18.00;17.00;;;;;;;;5045315;28;8863;-72
2022/05/20 09:56:47;;;;;;;;;19.50;18.50;;;;;;;;5041933;28;8898;-73
2022/05/20 09:59:22;;;;;;;;;17.75;17.50;;;;;;;;5044532;28;8883;-74
2022/05/20 10:01:58;;;;;;;;;14.50;14.50;;;;;;;;5043974;28;8820;-72
2022/05/20 10:04:40;;;;;;;;;19.75;16.50;;;;;;;;5044140;28;8887;-71
2022/05/20 10:07:13;;;;;;;;;23.50;21.75;;;;;;;;5041303;28;8871;-73
2022/05/20 10:09:46;;;;;;;;;16.00;13.75;;;;;;;;5043453;28;9017;-71
2022/05/20 10:12:28;;;;;;;;;22.00;20.25;;;;;;;;5045131;28;8885;-74
2022/05/20 10:15:01;;;;;;;;;22.75;21.00;;;;;;;;5042290;28;8861;-73
2022/05/20 10:17:39;;;;;;;;;23.75;21.50;;;;;;;;5044246;28;8982;-73
2022/05/20 10:20:12;;;;;;;;;21.25;21.25;;;;;;;;5043929;28;8985;-73
2022/05/20 10:22:48;;;;;;;;;20.75;19.00;;;;;;;;5043622;28;8890;-74
2022/05/20 10:25:24;;;;;;;;;25.00;23.75;;;;;;;;5044616;28;8957;-74
2022/05/20 10:27:58;;;;;;;;;25.25;21.75;;;;;;;;5042572;28;8870;-72
2022/05/20 10:33:16;;;;;;;;;20.25;19.50;;;;;;;;5045421;28;8835;-74
2022/05/20 10:36:01;;;;;;;;;22.00;21.50;;;;;;;;5042841;28;8875;-72
2022/05/20 10:38:49;;;;;;;;;20.25;17.00;;;;;;;;5041384;28;10201;-72
2022/05/20 10:41:29;;;;;;;;;20.75;20.00;;;;;;;;5044313;28;8874;-72
2022/05/20 10:49:58;;;;;;;;;15.50;14.00;;;;;;;;5043107;28;9517;-73
2022/05/20 10:52:37;;;;;;;;;18.50;16.00;;;;;;;;5042364;28;8883;-73
2022/05/20 10:55:12;;;;;;;;;19.00;19.00;;;;;;;;5044176;28;8867;-75
2022/05/20 10:58:07;;;;;;;;;21.25;19.50;;;;;;;;5043223;28;8873;-75
2022/05/20 11:00:44;;;;;;;;;23.00;22.50;;;;;;;;5036620;28;8823;-74
2022/05/20 11:03:36;;;;;;;;;20.75;18.25;;;;;;;;5044210;28;8871;-73
2022/05/20 11:06:28;;;;;;;;;20.00;20.00;;;;;;;;5030302;28;8931;-71
2022/05/20 11:09:03;;;;;;;;;18.75;16.75;;;;;;;;5042615;28;8879;-73
2022/05/20 11:11:56;;;;;;;;;17.25;17.25;;;;;;;;5043727;28;8960;-73
2022/05/20 11:15:00;;;;;;;;;11.60;11.60;;;;;;;;5031053;28;8916;-75
2022/05/20 11:17:49;;;;;;;;;8.80;8.80;;;;;;;;5033545;28;8919;-75
2022/05/20 11:20:25;;;;;;;;;9.20;9.20;;;;;;;;5038587;28;8840;-77
2022/05/20 11:23:09;;;;;;;;;9.60;9.60;;;;;;;;5038812;28;8893;-75
2022/05/20 11:25:53;;;;;;;;;66.25;56.25;;;;;;;;5038020;28;8902;-70
2022/05/20 11:28:37;;;;;;;;;20.00;20.00;;;;;;;;5039129;28;10906;-74
2022/05/20 11:31:15;;;;;;;;;18.00;16.75;;;;;;;;5042485;28;8927;-73
2022/05/20 11:33:52;;;;;;;;;118.75;114.00;;;;;;;;5043394;28;8865;-73
2022/05/20 11:36:33;;;;;;;;;14.60;14.60;;;;;;;;5040529;28;8926;-72
2022/05/20 11:39:34;;;;;;;;;35.75;33.00;;;;;;;;5048823;28;8871;-73
2022/05/20 11:42:11;;;;;;;;;15.25;15.25;;;;;;;;5044040;28;8852;-72
2022/05/20 11:44:54;;;;;;;;;31.25;29.00;;;;;;;;5039220;28;8890;-75
2022/05/20 11:47:55;;;;;;;;;19.75;14.75;;;;;;;;5036744;28;8869;-74
2022/05/20 11:50:42;;;;;;;;;398.83;374.00;;;;;;;;5038822;28;8902;-74
2022/05/20 11:53:14;;;;;;;;;2.25;0.25;;;;;;;;5045978;28;8859;-73
2022/05/20 11:55:51;;;;;;;;;16.20;13.80;;;;;;;;5041912;28;8851;-73
2022/05/20 11:58:27;;;;;;;;;13.00;12.00;;;;;;;;5037062;28;8898;-74
2022/05/20 12:00:55;;;;;;;;;11.60;11.60;;;;;;;;5045501;28;8818;-72
2022/05/20 12:03:27;;;;;;;;;9.20;9.20;;;;;;;;5035327;28;8875;-73
2022/05/20 12:05:58;;;;;;;;;12.40;10.00;;;;;;;;5041654;28;8893;-72
2022/05/20 12:08:56;;;;;;;;;9.80;9.80;;;;;;;;5039982;28;8867;-72
2022/05/20 12:11:28;;;;;;;;;12.80;12.80;;;;;;;;4978537;28;8918;-74
2022/05/20 12:14:07;;;;;;;;;11.00;11.00;;;;;;;;5027303;28;9578;-74
2022/05/20 12:16:53;;;;;;;;;8.20;8.20;;;;;;;;5036112;28;8867;-73
2022/05/20 12:24:55;;;;;;;;;9.80;8.00;;;;;;;;5034850;28;9645;-74
2022/05/20 12:27:40;;;;;;;;;9.80;9.80;;;;;;;;5033022;28;8869;-73
2022/05/20 12:30:31;;;;;;;;;9.20;9.20;;;;;;;;5040252;28;8867;-73
2022/05/20 12:32:58;;;;;;;;;8.00;7.80;;;;;;;;5032095;28;8911;-74
2022/05/20 12:35:29;;;;;;;;;8.60;7.00;;;;;;;;5037739;28;8897;-74
2022/05/20 12:38:25;;;;;;;;;11.60;8.60;;;;;;;;5039575;28;8879;-75
2022/05/20 12:41:17;;;;;;;;;8.80;7.20;;;;;;;;5039856;28;8875;-74
2022/05/20 12:43:50;;;;;;;;;6.20;6.20;;;;;;;;5034002;28;8972;-75
2022/05/20 12:46:47;;;;;;;;;8.40;8.40;;;;;;;;5038541;28;8902;-74
2022/05/20 12:49:14;;;;;;;;;5.80;5.80;;;;;;;;5036742;28;8993;-74
2022/05/20 12:51:44;;;;;;;;;4.60;3.00;;;;;;;;5033045;28;8875;-74
2022/05/20 12:54:22;;;;;;;;;5.20;4.00;;;;;;;;5040043;28;8875;-74
2022/05/20 12:56:54;;;;;;;;;3.80;3.80;;;;;;;;5032864;28;8914;-73
2022/05/20 12:59:24;;;;;;;;;4.00;4.00;;;;;;;;5033824;28;8870;-77
2022/05/20 13:01:57;;;;;;;;;5.60;4.00;;;;;;;;5037985;28;8808;-75
2022/05/20 13:04:27;;;;;;;;;1.60;1.60;;;;;;;;5036251;28;8882;-76
2022/05/20 13:06:55;;;;;;;;;3.00;3.00;;;;;;;;5031350;28;8884;-75
2022/05/20 13:09:27;;;;;;;;;4.00;2.60;;;;;;;;5037995;28;8871;-74
2022/05/20 13:11:55;;;;;;;;;3.60;3.60;;;;;;;;5041954;28;8875;-74
2022/05/20 13:14:23;;;;;;;;;6.00;4.20;;;;;;;;5041518;28;8858;-78
2022/05/20 13:16:54;;;;;;;;;4.00;4.00;;;;;;;;5042890;28;8909;-74
2022/05/20 13:19:28;;;;;;;;;5.00;5.00;;;;;;;;5043265;28;8875;-77
2022/05/20 13:22:00;;;;;;;;;4.40;4.40;;;;;;;;5043981;28;8867;-78
2022/05/20 13:24:31;;;;;;;;;4.80;4.00;;;;;;;;5070053;28;8947;-76
2022/05/20 13:27:07;;;;;;;;;6.20;5.00;;;;;;;;5042796;28;8875;-76
2022/05/20 13:29:35;;;;;;;;;3.60;3.60;;;;;;;;5040493;28;8902;-72
2022/05/20 13:32:25;;;;;;;;;5.00;5.00;;;;;;;;5042826;28;8833;-74
2022/05/20 13:34:54;;;;;;;;;4.00;4.00;;;;;;;;5039949;28;8890;-72
2022/05/20 13:37:25;;;;;;;;;6.00;4.00;;;;;;;;5044256;28;8909;-78
2022/05/20 13:40:01;;;;;;;;;4.20;4.20;;;;;;;;5043596;28;8882;-75
2022/05/20 13:42:32;;;;;;;;;5.40;5.40;;;;;;;;5039572;28;8936;-78
2022/05/20 13:45:07;;;;;;;;;6.80;6.80;;;;;;;;5041705;28;8871;-71
2022/05/20 13:50:23;;;;;;;;;5.80;5.80;;;;;;;;5039799;28;8871;-75
2022/05/20 13:52:51;;;;;;;;;6.20;6.20;;;;;;;;5038031;28;8901;-74
2022/05/20 13:55:21;;;;;;;;;6.20;6.20;;;;;;;;5039292;28;8867;-74
2022/05/20 13:57:50;;;;;;;;;5.00;5.00;;;;;;;;5042572;28;8886;-70
2022/05/20 14:00:30;;;;;;;;;4.80;4.80;;;;;;;;5040749;28;8875;-70
2022/05/20 14:03:04;;;;;;;;;6.00;6.00;;;;;;;;5037911;28;8993;-71
2022/05/20 14:05:34;;;;;;;;;5.60;5.60;;;;;;;;5044241;28;8890;-72
2022/05/20 14:08:04;;;;;;;;;5.00;5.00;;;;;;;;5044309;28;9001;-74
2022/05/20 14:10:36;;;;;;;;;6.80;5.40;;;;;;;;5044152;28;8851;-75
2022/05/20 14:13:06;;;;;;;;;6.60;6.60;;;;;;;;5043968;28;8953;-73
2022/05/20 14:15:42;;;;;;;;;9.00;9.00;;;;;;;;5039587;28;9660;-76
2022/05/20 14:18:22;;;;;;;;;9.00;9.00;;;;;;;;5042448;28;8859;-75
2022/05/20 14:20:55;;;;;;;;;10.00;10.00;;;;;;;;5044423;28;8893;-76
2022/05/20 14:23:23;;;;;;;;;12.00;10.75;;;;;;;;5042905;28;8871;-76
2022/05/20 14:26:01;;;;;;;;;8.00;8.00;;;;;;;;5043781;28;8980;-74
2022/05/20 14:28:45;;;;;;;;;7.50;7.50;;;;;;;;5043126;28;8879;-76
2022/05/20 14:31:28;;;;;;;;;14.75;11.75;;;;;;;;5039838;28;8845;-74
2022/05/20 14:34:01;;;;;;;;;13.75;13.75;;;;;;;;5033428;28;8859;-74
2022/05/20 14:36:28;;;;;;;;;16.75;15.50;;;;;;;;5040938;28;8851;-75
2022/05/20 14:38:59;;;;;;;;;17.00;17.00;;;;;;;;5036652;28;8933;-78
2022/05/20 14:41:30;;;;;;;;;20.00;19.50;;;;;;;;5044941;28;8902;-81
2022/05/20 14:44:00;;;;;;;;;16.00;16.00;;;;;;;;5037116;28;8886;-78
2022/05/20 14:49:27;;;;;;;;;16.50;16.50;;;;;;;;5034506;28;8811;-78
2022/05/20 14:51:58;;;;;;;;;15.00;15.00;;;;;;;;5034408;28;8889;-81
2022/05/20 14:54:35;;;;;;;;;13.00;13.00;;;;;;;;5031317;28;9689;-80
2022/05/20 14:57:20;;;;;;;;;8.50;8.50;;;;;;;;5031423;28;9021;-83
2022/05/20 15:00:20;;;;;;;;;13.50;13.50;;;;;;;;5033516;28;9028;-80
2022/05/20 15:02:47;;;;;;;;;14.00;14.00;;;;;;;;5031637;28;8823;-79
2022/05/20 15:05:15;;;;;;;;;10.25;10.25;;;;;;;;5035806;28;8928;-78
2022/05/20 15:07:43;;;;;;;;;9.75;7.75;;;;;;;;5033417;28;8854;-76
2022/05/20 15:10:15;;;;;;;;;8.00;8.00;;;;;;;;5035769;28;8881;-72
2022/05/20 15:12:44;;;;;;;;;9.00;8.00;;;;;;;;5040118;28;8883;-75
2022/05/20 15:15:12;;;;;;;;;7.00;7.00;;;;;;;;5039023;28;8890;-73
2022/05/20 15:18:04;;;;;;;;;8.50;7.00;;;;;;;;5040707;28;8909;-74
2022/05/20 15:20:33;;;;;;;;;6.00;6.00;;;;;;;;5042304;28;8863;-76
2022/05/20 15:23:01;;;;;;;;;6.50;6.50;;;;;;;;5036701;28;8920;-79
2022/05/20 15:25:30;;;;;;;;;7.00;7.00;;;;;;;;5040916;28;8879;-75
2022/05/20 15:27:59;;;;;;;;;10.00;8.50;;;;;;;;5040670;28;8835;-73
2022/05/20 15:30:26;;;;;;;;;6.75;6.75;;;;;;;;5038927;28;8936;-74
2022/05/20 15:35:39;;;;;;;;;7.25;7.25;;;;;;;;5039384;28;8859;-75
2022/05/20 15:38:10;;;;;;;;;6.00;5.75;;;;;;;;5035992;28;8889;-76
2022/05/20 15:40:40;;;;;;;;;7.00;7.00;;;;;;;;5036811;28;8855;-75
2022/05/20 15:43:09;;;;;;;;;7.50;6.00;;;;;;;;5039727;28;8875;-75
2022/05/20 15:45:36;;;;;;;;;6.75;6.75;;;;;;;;5042762;28;9637;-77
2022/05/20 15:48:04;;;;;;;;;6.25;6.25;;;;;;;;5043613;28;8874;-77
2022/05/20 15:50:31;;;;;;;;;3.00;3.00;;;;;;;;5039184;28;8855;-75
2022/05/20 15:53:02;;;;;;;;;4.25;3.75;;;;;;;;5037611;28;8964;-79
2022/05/20 15:55:32;;;;;;;;;5.50;5.50;;;;;;;;5036535;28;8894;-75
2022/05/20 15:58:06;;;;;;;;;3.50;3.50;;;;;;;;5035736;28;8874;-72
2022/05/20 16:00:36;;;;;;;;;2.00;2.00;;;;;;;;5035014;28;8803;-72
2022/05/20 16:03:05;;;;;;;;;4.50;4.50;;;;;;;;5035271;28;8874;-73
2022/05/20 16:05:33;;;;;;;;;4.00;4.00;;;;;;;;5035144;28;8867;-74